Time;durP1;ratioP1;P1;durP2;ratioP2;P2;SDS_P1;SDS_P2;PMS_P1;PMS_P2;Temp;Humidity;BMP_temperature;BMP_pressure;BME280_temperature;BME280_humidity;BME280_pressure;Samples;Min_cycle;Max_cycle;Signal;HPM_P1;HPM_P2
2021/10/22 00:01:33;;;;;;;2.03;0.77;;;;;;;;;;5065488;28;20057;-81
2021/10/22 00:03:59;;;;;;;3.38;0.82;;;;;;;;;;5061834;28;20064;-81
2021/10/22 00:06:26;;;;;;;4.55;1.00;;;;;;;;;;5070329;28;20056;-81
2021/10/22 00:08:52;;;;;;;3.67;1.20;;;;;;;;;;5064401;28;20118;-82
2021/10/22 00:11:19;;;;;;;3.00;0.88;;;;;;;;;;5063278;28;20091;-82
2021/10/22 00:13:45;;;;;;;3.65;1.08;;;;;;;;;;5055771;28;20114;-82
2021/10/22 00:16:11;;;;;;;3.25;0.80;;;;;;;;;;5057031;28;20061;-82
2021/10/22 00:18:38;;;;;;;2.85;0.90;;;;;;;;;;5062224;28;20068;-82
2021/10/22 00:21:04;;;;;;;2.05;0.93;;;;;;;;;;5064717;28;20430;-81
2021/10/22 00:23:31;;;;;;;1.85;0.82;;;;;;;;;;5065715;28;20064;-82
2021/10/22 00:25:58;;;;;;;2.45;0.88;;;;;;;;;;5066863;28;20076;-81
2021/10/22 00:28:24;;;;;;;4.15;1.25;;;;;;;;;;5062983;28;20068;-82
2021/10/22 00:30:50;;;;;;;2.85;0.70;;;;;;;;;;5064519;28;20067;-81
2021/10/22 00:33:17;;;;;;;4.50;1.33;;;;;;;;;;5060431;28;20421;-81
2021/10/22 00:35:43;;;;;;;3.03;0.80;;;;;;;;;;5064170;28;20048;-81
2021/10/22 00:38:10;;;;;;;2.00;0.80;;;;;;;;;;5064010;28;20441;-82
2021/10/22 00:40:36;;;;;;;2.22;1.02;;;;;;;;;;5066177;28;20125;-81
2021/10/22 00:43:02;;;;;;;2.20;0.80;;;;;;;;;;5064278;28;20450;-80
2021/10/22 00:45:29;;;;;;;3.55;0.75;;;;;;;;;;5063927;28;20122;-81
2021/10/22 00:47:55;;;;;;;2.92;0.68;;;;;;;;;;5066753;28;20671;-80
2021/10/22 00:50:22;;;;;;;2.65;0.60;;;;;;;;;;5069667;28;20055;-80
2021/10/22 00:52:48;;;;;;;2.63;0.85;;;;;;;;;;5067793;28;20067;-80
2021/10/22 00:55:15;;;;;;;3.33;0.80;;;;;;;;;;5064679;28;20095;-80
2021/10/22 00:57:42;;;;;;;2.60;0.90;;;;;;;;;;5065822;28;20060;-81
2021/10/22 01:00:09;;;;;;;2.05;0.70;;;;;;;;;;5069477;28;20431;-82
2021/10/22 01:02:36;;;;;;;1.92;0.88;;;;;;;;;;5080725;28;20074;-81
2021/10/22 01:05:08;;;;;;;2.45;0.82;;;;;;;;;;5069571;28;20535;-82
2021/10/22 01:07:36;;;;;;;3.90;0.90;;;;;;;;;;5067942;28;20067;-82
2021/10/22 01:10:03;;;;;;;4.35;1.00;;;;;;;;;;5069145;28;20105;-82
2021/10/22 01:12:30;;;;;;;2.50;0.70;;;;;;;;;;5067531;28;20065;-81
2021/10/22 01:14:56;;;;;;;1.25;0.70;;;;;;;;;;5067292;28;20567;-80
2021/10/22 01:17:32;;;;;;;2.40;0.80;;;;;;;;;;5058720;28;20064;-81
2021/10/22 01:19:59;;;;;;;2.33;0.75;;;;;;;;;;5068096;28;20106;-81
2021/10/22 01:22:25;;;;;;;2.85;0.80;;;;;;;;;;5073768;28;20129;-80
2021/10/22 01:24:52;;;;;;;4.40;1.02;;;;;;;;;;5067669;28;20029;-81
2021/10/22 01:27:18;;;;;;;1.67;0.68;;;;;;;;;;5062521;28;20110;-80
2021/10/22 01:29:45;;;;;;;3.72;1.00;;;;;;;;;;5068931;28;20724;-81
2021/10/22 01:32:11;;;;;;;2.22;0.70;;;;;;;;;;5067405;28;20059;-81
2021/10/22 01:34:38;;;;;;;2.63;0.93;;;;;;;;;;5064935;28;20056;-80
2021/10/22 01:37:04;;;;;;;2.60;0.82;;;;;;;;;;5069121;28;20140;-81
2021/10/22 01:39:31;;;;;;;2.65;0.70;;;;;;;;;;5062000;28;20093;-80
2021/10/22 01:41:57;;;;;;;2.70;0.68;;;;;;;;;;5065877;28;20626;-81
2021/10/22 01:44:24;;;;;;;2.38;0.50;;;;;;;;;;5068937;28;20114;-81
2021/10/22 01:46:51;;;;;;;2.85;0.90;;;;;;;;;;5063464;28;20067;-81
2021/10/22 01:49:17;;;;;;;3.08;0.82;;;;;;;;;;5066784;28;20172;-81
2021/10/22 01:51:44;;;;;;;2.38;0.80;;;;;;;;;;5064117;28;20057;-81
2021/10/22 01:54:11;;;;;;;2.88;0.60;;;;;;;;;;5066453;28;20064;-81
2021/10/22 01:56:37;;;;;;;3.38;0.90;;;;;;;;;;5069897;28;20033;-81
2021/10/22 01:59:04;;;;;;;3.95;1.83;;;;;;;;;;5071849;28;20056;-82
2021/10/22 02:01:30;;;;;;;2.45;0.85;;;;;;;;;;5061270;28;20152;-82
2021/10/22 02:03:56;;;;;;;3.70;0.73;;;;;;;;;;5065913;28;20448;-82
2021/10/22 02:06:23;;;;;;;2.33;0.70;;;;;;;;;;5073060;28;20433;-81
2021/10/22 02:08:49;;;;;;;4.03;0.95;;;;;;;;;;5067204;28;20076;-82
2021/10/22 02:11:16;;;;;;;2.78;0.80;;;;;;;;;;5056552;28;20106;-81
2021/10/22 02:13:42;;;;;;;2.90;0.70;;;;;;;;;;5059097;28;20116;-81
2021/10/22 02:16:09;;;;;;;2.53;0.70;;;;;;;;;;5066527;28;20048;-81
2021/10/22 02:18:35;;;;;;;1.60;0.70;;;;;;;;;;5063501;28;20496;-81
2021/10/22 02:21:02;;;;;;;3.85;1.10;;;;;;;;;;5066253;28;20061;-81
2021/10/22 02:23:28;;;;;;;3.80;0.77;;;;;;;;;;5067165;28;20114;-81
2021/10/22 02:25:55;;;;;;;1.70;0.70;;;;;;;;;;5067902;28;20056;-81
2021/10/22 02:28:21;;;;;;;2.33;0.70;;;;;;;;;;5066706;28;20068;-81
2021/10/22 02:30:47;;;;;;;2.58;0.70;;;;;;;;;;5068490;28;20382;-80
2021/10/22 02:33:14;;;;;;;3.90;0.73;;;;;;;;;;5062558;28;20067;-81
2021/10/22 02:35:40;;;;;;;3.03;0.60;;;;;;;;;;5067009;28;20468;-80
2021/10/22 02:38:07;;;;;;;4.45;0.95;;;;;;;;;;5067173;28;20706;-81
2021/10/22 02:40:34;;;;;;;3.13;0.80;;;;;;;;;;5062335;28;20064;-81
2021/10/22 02:43:00;;;;;;;2.40;0.70;;;;;;;;;;5063477;28;20067;-81
2021/10/22 02:45:26;;;;;;;4.18;0.55;;;;;;;;;;5058705;28;20055;-82
2021/10/22 02:47:53;;;;;;;3.40;0.60;;;;;;;;;;5061997;28;20035;-82
2021/10/22 02:50:21;;;;;;;2.17;0.70;;;;;;;;;;5066446;28;20071;-82
2021/10/22 02:52:48;;;;;;;2.55;0.88;;;;;;;;;;5067208;28;20444;-82
2021/10/22 02:55:15;;;;;;;3.05;0.90;;;;;;;;;;5063605;28;20567;-82
2021/10/22 02:57:41;;;;;;;2.10;0.52;;;;;;;;;;5069671;28;20063;-82
2021/10/22 03:00:08;;;;;;;1.50;0.65;;;;;;;;;;5063170;28;20079;-81
2021/10/22 03:02:35;;;;;;;3.30;0.68;;;;;;;;;;5062710;28;20196;-82
2021/10/22 03:05:01;;;;;;;1.85;0.60;;;;;;;;;;5074586;28;20109;-82
2021/10/22 03:07:27;;;;;;;1.95;0.73;;;;;;;;;;5062624;28;20055;-81
2021/10/22 03:09:54;;;;;;;1.67;0.82;;;;;;;;;;5059725;28;20437;-81
2021/10/22 03:12:20;;;;;;;3.17;0.70;;;;;;;;;;5062836;28;20075;-81
2021/10/22 03:14:47;;;;;;;2.78;0.73;;;;;;;;;;5068326;28;20455;-81
2021/10/22 03:17:13;;;;;;;1.83;0.60;;;;;;;;;;5063363;28;20053;-81
2021/10/22 03:19:39;;;;;;;2.38;0.75;;;;;;;;;;5051908;28;20053;-81
2021/10/22 03:22:06;;;;;;;2.30;0.93;;;;;;;;;;5060498;28;20060;-81
2021/10/22 03:24:32;;;;;;;2.55;0.60;;;;;;;;;;5065455;28;20106;-82
2021/10/22 03:26:59;;;;;;;1.58;0.52;;;;;;;;;;5061535;28;20075;-81
2021/10/22 03:29:25;;;;;;;2.33;0.55;;;;;;;;;;5059336;28;20061;-82
2021/10/22 03:31:52;;;;;;;1.70;0.60;;;;;;;;;;5065725;28;20056;-82
2021/10/22 03:34:18;;;;;;;2.08;0.68;;;;;;;;;;5060047;28;20078;-82
2021/10/22 03:36:45;;;;;;;2.97;0.80;;;;;;;;;;5060345;28;20885;-82
2021/10/22 03:39:11;;;;;;;2.83;0.60;;;;;;;;;;5059632;28;20109;-81
2021/10/22 03:41:38;;;;;;;3.30;0.75;;;;;;;;;;5063681;28;20053;-82
2021/10/22 03:44:04;;;;;;;1.92;0.60;;;;;;;;;;5061994;28;20118;-82
2021/10/22 03:46:30;;;;;;;1.98;0.50;;;;;;;;;;5057982;28;20051;-82
2021/10/22 03:48:57;;;;;;;2.30;0.60;;;;;;;;;;5064042;28;20059;-82
2021/10/22 03:51:23;;;;;;;2.40;0.70;;;;;;;;;;5058946;28;20546;-82
2021/10/22 03:53:50;;;;;;;1.42;0.50;;;;;;;;;;5059698;28;20126;-83
2021/10/22 03:56:16;;;;;;;2.53;0.60;;;;;;;;;;5055700;28;20060;-82
2021/10/22 03:58:43;;;;;;;1.23;0.40;;;;;;;;;;5061908;28;20492;-82
2021/10/22 04:01:09;;;;;;;2.00;0.50;;;;;;;;;;5053338;28;20063;-82
2021/10/22 04:03:36;;;;;;;2.30;0.50;;;;;;;;;;5056210;28;20116;-82
2021/10/22 04:06:02;;;;;;;3.55;0.50;;;;;;;;;;5066412;28;20086;-81
2021/10/22 04:08:29;;;;;;;1.65;0.57;;;;;;;;;;5064480;28;20117;-81
2021/10/22 04:10:55;;;;;;;2.97;0.80;;;;;;;;;;5067107;28;20064;-82
2021/10/22 04:13:22;;;;;;;2.85;0.73;;;;;;;;;;5058288;28;20075;-81
2021/10/22 04:15:48;;;;;;;1.42;0.50;;;;;;;;;;5059968;28;20901;-81
2021/10/22 04:18:15;;;;;;;1.95;0.50;;;;;;;;;;5063966;28;20064;-81
2021/10/22 04:20:41;;;;;;;1.65;0.50;;;;;;;;;;5061975;28;20064;-83
2021/10/22 04:23:08;;;;;;;3.15;0.70;;;;;;;;;;5066966;28;20067;-80
2021/10/22 04:25:35;;;;;;;1.88;0.70;;;;;;;;;;5062103;28;20055;-84
2021/10/22 04:28:02;;;;;;;2.63;0.70;;;;;;;;;;5069899;28;20072;-82
2021/10/22 04:30:28;;;;;;;1.90;0.57;;;;;;;;;;5067997;28;20048;-82
2021/10/22 04:32:55;;;;;;;1.13;0.43;;;;;;;;;;5071626;28;20083;-81
2021/10/22 04:35:21;;;;;;;2.65;0.70;;;;;;;;;;5068554;28;20078;-84
2021/10/22 04:40:31;;;;;;;2.10;0.80;;;;;;;;;;5069314;28;20082;-82
2021/10/22 04:43:00;;;;;;;1.67;0.47;;;;;;;;;;5063509;28;20060;-83
2021/10/22 04:45:26;;;;;;;1.05;0.40;;;;;;;;;;5066099;28;20091;-82
2021/10/22 04:47:53;;;;;;;2.47;0.47;;;;;;;;;;5067735;28;20059;-82
2021/10/22 04:50:22;;;;;;;1.38;0.40;;;;;;;;;;5062843;28;20064;-82
2021/10/22 04:52:53;;;;;;;1.98;0.65;;;;;;;;;;5065232;28;20137;-83
2021/10/22 04:55:20;;;;;;;3.15;0.82;;;;;;;;;;5063583;28;20052;-84
2021/10/22 04:57:47;;;;;;;2.88;0.68;;;;;;;;;;5062515;28;20044;-83
2021/10/22 05:00:13;;;;;;;2.47;0.70;;;;;;;;;;5065358;28;20071;-83
2021/10/22 05:02:40;;;;;;;2.83;0.63;;;;;;;;;;5066768;28;20794;-82
2021/10/22 05:05:06;;;;;;;1.80;0.43;;;;;;;;;;5067277;28;20617;-83
2021/10/22 05:07:33;;;;;;;2.33;0.60;;;;;;;;;;5066484;28;20133;-82
2021/10/22 05:09:59;;;;;;;1.67;0.68;;;;;;;;;;5067628;28;20056;-82
2021/10/22 05:12:26;;;;;;;7.65;0.60;;;;;;;;;;5064018;28;20146;-82
2021/10/22 05:14:52;;;;;;;3.15;0.85;;;;;;;;;;5074496;28;20052;-82
2021/10/22 05:17:19;;;;;;;1.45;0.70;;;;;;;;;;5068078;28;20121;-81
2021/10/22 05:19:45;;;;;;;2.08;0.60;;;;;;;;;;5065943;28;21056;-81
2021/10/22 05:22:12;;;;;;;2.03;0.50;;;;;;;;;;5064188;28;20197;-81
2021/10/22 05:24:38;;;;;;;1.15;0.50;;;;;;;;;;5063364;28;20106;-81
2021/10/22 05:27:04;;;;;;;1.52;0.45;;;;;;;;;;5068309;28;20074;-81
2021/10/22 05:29:31;;;;;;;1.55;0.60;;;;;;;;;;5052300;28;20080;-80
2021/10/22 05:31:58;;;;;;;1.40;0.40;;;;;;;;;;5062372;28;20040;-81
2021/10/22 05:34:25;;;;;;;2.13;0.60;;;;;;;;;;5056870;28;20059;-80
2021/10/22 05:36:52;;;;;;;1.88;0.40;;;;;;;;;;5061180;28;20055;-81
2021/10/22 05:39:19;;;;;;;1.15;0.47;;;;;;;;;;5058532;28;20071;-81
2021/10/22 05:41:50;;;;;;;2.17;0.77;;;;;;;;;;5060290;28;20052;-81
2021/10/22 05:44:20;;;;;;;1.20;0.60;;;;;;;;;;5061890;28;20102;-80
2021/10/22 05:46:47;;;;;;;2.03;0.50;;;;;;;;;;5059043;28;20514;-81
2021/10/22 05:49:13;;;;;;;2.00;0.43;;;;;;;;;;5062708;28;20118;-81
2021/10/22 05:51:40;;;;;;;1.70;0.40;;;;;;;;;;5060003;28;20060;-81
2021/10/22 05:54:06;;;;;;;0.93;0.30;;;;;;;;;;5066701;28;20056;-82
2021/10/22 05:56:33;;;;;;;1.38;0.40;;;;;;;;;;5066521;28;20061;-81
2021/10/22 05:59:00;;;;;;;1.52;0.43;;;;;;;;;;5065848;28;20510;-82
2021/10/22 06:01:26;;;;;;;0.85;0.40;;;;;;;;;;5056601;28;20056;-83
2021/10/22 06:03:53;;;;;;;1.27;0.30;;;;;;;;;;5063620;28;20059;-83
2021/10/22 06:06:19;;;;;;;0.40;0.35;;;;;;;;;;5056727;28;20079;-80
2021/10/22 06:08:46;;;;;;;2.70;0.57;;;;;;;;;;5066999;28;20060;-81
2021/10/22 06:11:12;;;;;;;2.05;0.52;;;;;;;;;;5052184;28;20053;-80
2021/10/22 06:13:43;;;;;;;0.73;0.40;;;;;;;;;;5057770;28;20075;-81
2021/10/22 06:16:10;;;;;;;1.17;0.20;;;;;;;;;;5059331;28;20082;-80
2021/10/22 06:18:45;;;;;;;1.48;0.47;;;;;;;;;;5065751;28;20488;-81
2021/10/22 06:21:19;;;;;;;1.88;0.47;;;;;;;;;;5066055;28;20063;-81
2021/10/22 06:23:55;;;;;;;1.42;0.50;;;;;;;;;;5058437;28;20923;-80
2021/10/22 06:26:27;;;;;;;1.05;0.30;;;;;;;;;;5064546;28;20251;-81
2021/10/22 06:28:54;;;;;;;1.05;0.47;;;;;;;;;;5062395;28;20565;-80
2021/10/22 06:31:22;;;;;;;0.98;0.30;;;;;;;;;;5064185;28;20659;-79
2021/10/22 06:33:48;;;;;;;2.95;0.30;;;;;;;;;;5051179;28;20112;-80
2021/10/22 06:36:14;;;;;;;1.23;0.30;;;;;;;;;;5064369;28;20048;-78
2021/10/22 06:38:41;;;;;;;1.65;0.50;;;;;;;;;;5066321;28;20140;-80
2021/10/22 06:41:08;;;;;;;1.48;0.60;;;;;;;;;;5062263;28;20106;-80
2021/10/22 06:43:35;;;;;;;1.90;0.60;;;;;;;;;;5063030;28;20059;-80
2021/10/22 06:46:02;;;;;;;1.08;0.40;;;;;;;;;;5062083;28;20074;-80
2021/10/22 06:48:28;;;;;;;1.75;0.40;;;;;;;;;;5062335;28;21327;-80
2021/10/22 06:50:55;;;;;;;1.92;0.50;;;;;;;;;;5064717;28;20052;-80
2021/10/22 06:53:21;;;;;;;1.38;0.50;;;;;;;;;;5063917;28;20130;-81
2021/10/22 06:55:49;;;;;;;1.70;0.30;;;;;;;;;;5061199;28;20040;-80
2021/10/22 06:58:15;;;;;;;1.23;0.32;;;;;;;;;;5059848;28;20064;-79
2021/10/22 07:00:48;;;;;;;2.70;0.40;;;;;;;;;;5055547;28;20094;-80
2021/10/22 07:03:19;;;;;;;0.80;0.30;;;;;;;;;;5054897;28;20313;-79
2021/10/22 07:08:12;;;;;;;1.48;0.38;;;;;;;;;;5060545;28;20067;-79
2021/10/22 07:10:39;;;;;;;0.95;0.30;;;;;;;;;;5064166;28;20495;-79
2021/10/22 07:13:06;;;;;;;0.77;0.40;;;;;;;;;;5062217;28;20064;-79
2021/10/22 07:15:32;;;;;;;1.27;0.30;;;;;;;;;;5055768;28;20091;-78
2021/10/22 07:18:02;;;;;;;1.08;0.40;;;;;;;;;;5064791;28;20356;-79
2021/10/22 07:20:30;;;;;;;1.27;0.50;;;;;;;;;;5059133;28;20488;-78
2021/10/22 07:23:07;;;;;;;2.47;0.60;;;;;;;;;;5066181;28;20118;-77
2021/10/22 07:25:37;;;;;;;1.55;0.50;;;;;;;;;;5059032;28;20060;-79
2021/10/22 07:28:12;;;;;;;1.73;0.40;;;;;;;;;;5064336;28;20574;-79
2021/10/22 07:30:41;;;;;;;0.98;0.30;;;;;;;;;;5069984;28;20153;-80
2021/10/22 07:33:08;;;;;;;2.13;0.60;;;;;;;;;;5068269;28;20067;-78
2021/10/22 07:35:38;;;;;;;1.33;0.50;;;;;;;;;;5072243;28;20156;-78
2021/10/22 07:38:09;;;;;;;0.63;0.28;;;;;;;;;;5064820;28;20063;-77
2021/10/22 07:40:36;;;;;;;0.93;0.30;;;;;;;;;;5069558;28;20056;-78
2021/10/22 07:43:02;;;;;;;1.73;0.40;;;;;;;;;;5062095;28;20053;-78
2021/10/22 07:45:29;;;;;;;1.15;0.25;;;;;;;;;;5065003;28;20087;-78
2021/10/22 07:47:55;;;;;;;0.80;0.20;;;;;;;;;;5066750;28;20056;-78
2021/10/22 07:50:21;;;;;;;0.95;0.30;;;;;;;;;;5069779;28;20059;-78
2021/10/22 07:52:48;;;;;;;1.63;0.57;;;;;;;;;;5065177;28;20779;-78
2021/10/22 07:55:14;;;;;;;0.60;0.28;;;;;;;;;;5062118;28;20056;-77
2021/10/22 07:57:40;;;;;;;0.45;0.25;;;;;;;;;;5055669;28;20064;-78
2021/10/22 08:00:07;;;;;;;0.47;0.30;;;;;;;;;;5066023;28;20052;-78
2021/10/22 08:02:34;;;;;;;1.05;0.35;;;;;;;;;;5063360;28;20581;-78
2021/10/22 08:05:00;;;;;;;1.30;0.30;;;;;;;;;;5052872;28;20056;-78
2021/10/22 08:07:30;;;;;;;0.80;0.38;;;;;;;;;;5066461;28;20538;-78
2021/10/22 08:09:58;;;;;;;0.98;0.20;;;;;;;;;;5059723;28;20137;-78
2021/10/22 08:12:25;;;;;;;0.95;0.30;;;;;;;;;;5064928;28;20106;-78
2021/10/22 08:14:52;;;;;;;1.63;0.50;;;;;;;;;;5060086;28;20048;-78
2021/10/22 08:17:19;;;;;;;1.73;0.50;;;;;;;;;;5064740;28;20048;-77
2021/10/22 08:19:51;;;;;;;0.73;0.40;;;;;;;;;;5060440;28;20068;-78
2021/10/22 08:22:27;;;;;;;1.42;0.30;;;;;;;;;;5067615;28;20056;-77
2021/10/22 08:25:10;;;;;;;1.35;0.25;;;;;;;;;;5055769;28;20449;-78
2021/10/22 08:27:37;;;;;;;0.70;0.20;;;;;;;;;;5059591;28;20064;-80
2021/10/22 08:30:05;;;;;;;0.40;0.20;;;;;;;;;;5062795;28;20079;-80
2021/10/22 08:32:32;;;;;;;0.47;0.20;;;;;;;;;;5062722;28;20838;-79
2021/10/22 08:34:58;;;;;;;0.40;0.30;;;;;;;;;;5057559;28;20125;-78
2021/10/22 08:37:25;;;;;;;0.73;0.32;;;;;;;;;;5064896;28;20103;-78
2021/10/22 08:39:53;;;;;;;0.82;0.22;;;;;;;;;;5064862;28;20068;-77
2021/10/22 08:42:23;;;;;;;0.47;0.20;;;;;;;;;;5061596;28;20494;-77
2021/10/22 08:44:56;;;;;;;1.27;0.30;;;;;;;;;;5054819;28;20078;-78
2021/10/22 08:47:26;;;;;;;0.82;0.20;;;;;;;;;;5064537;28;20117;-77
2021/10/22 08:49:53;;;;;;;1.30;0.40;;;;;;;;;;5065705;28;20432;-78
2021/10/22 08:52:20;;;;;;;0.93;0.32;;;;;;;;;;5068240;28;20469;-78
2021/10/22 08:54:46;;;;;;;1.08;0.30;;;;;;;;;;5072625;28;20148;-79
2021/10/22 08:57:12;;;;;;;1.38;0.30;;;;;;;;;;5063265;28;20055;-79
2021/10/22 08:59:39;;;;;;;1.20;0.35;;;;;;;;;;5061050;28;20102;-78
2021/10/22 09:02:14;;;;;;;0.60;0.10;;;;;;;;;;5065637;28;20075;-78
2021/10/22 09:04:41;;;;;;;0.80;0.20;;;;;;;;;;5058404;28;21270;-79
2021/10/22 09:07:09;;;;;;;0.55;0.25;;;;;;;;;;5077926;28;20482;-78
2021/10/22 09:09:35;;;;;;;1.00;0.30;;;;;;;;;;5067902;28;20048;-79
2021/10/22 09:12:02;;;;;;;1.00;0.30;;;;;;;;;;5066039;28;20064;-78
2021/10/22 09:14:31;;;;;;;0.32;0.20;;;;;;;;;;5062745;28;20064;-78
2021/10/22 09:16:57;;;;;;;0.95;0.30;;;;;;;;;;5066289;28;20106;-78
2021/10/22 09:19:33;;;;;;;0.70;0.20;;;;;;;;;;5064895;28;20063;-78
2021/10/22 09:22:19;;;;;;;0.68;0.30;;;;;;;;;;5056964;28;20059;-79
2021/10/22 09:25:00;;;;;;;0.38;0.30;;;;;;;;;;5065180;28;20056;-78
2021/10/22 09:27:42;;;;;;;0.73;0.22;;;;;;;;;;5065638;28;20072;-78
2021/10/22 09:30:10;;;;;;;1.33;0.30;;;;;;;;;;5055496;28;20090;-79
2021/10/22 09:32:47;;;;;;;1.92;0.25;;;;;;;;;;5062280;28;20492;-79
2021/10/22 09:35:13;;;;;;;0.50;0.20;;;;;;;;;;5068869;28;20032;-79
2021/10/22 09:37:41;;;;;;;1.05;0.30;;;;;;;;;;5059091;28;20249;-78
2021/10/22 09:40:08;;;;;;;0.57;0.20;;;;;;;;;;5074908;28;20059;-79
2021/10/22 09:42:36;;;;;;;0.65;0.20;;;;;;;;;;5062529;28;20274;-79
2021/10/22 09:45:03;;;;;;;0.68;0.30;;;;;;;;;;5064140;28;20041;-79
2021/10/22 09:47:29;;;;;;;0.93;0.40;;;;;;;;;;5066776;28;20056;-79
2021/10/22 09:50:06;;;;;;;0.85;0.20;;;;;;;;;;5072331;28;20064;-79
2021/10/22 09:52:33;;;;;;;0.93;0.28;;;;;;;;;;5064147;28;20137;-79
2021/10/22 09:55:12;;;;;;;1.38;0.47;;;;;;;;;;5060900;28;20125;-79
2021/10/22 09:57:39;;;;;;;1.75;0.40;;;;;;;;;;5064523;28;20436;-79
2021/10/22 10:00:11;;;;;;;0.75;0.22;;;;;;;;;;5065541;28;20056;-79
2021/10/22 10:02:38;;;;;;;2.22;0.40;;;;;;;;;;5059404;28;20061;-79
2021/10/22 10:05:06;;;;;;;0.45;0.30;;;;;;;;;;5066037;28;20100;-80
2021/10/22 10:07:38;;;;;;;0.68;0.30;;;;;;;;;;5064255;28;20064;-80
2021/10/22 10:10:06;;;;;;;0.35;0.20;;;;;;;;;;5067423;28;20067;-80
2021/10/22 10:12:34;;;;;;;0.93;0.40;;;;;;;;;;5062937;28;20075;-80
2021/10/22 10:15:00;;;;;;;1.95;0.22;;;;;;;;;;5065100;28;20125;-80
2021/10/22 10:17:28;;;;;;;0.88;0.20;;;;;;;;;;5061976;28;20064;-80
2021/10/22 10:19:55;;;;;;;0.98;0.30;;;;;;;;;;5061915;28;20064;-79
2021/10/22 10:22:26;;;;;;;0.52;0.30;;;;;;;;;;5068630;28;20056;-79
2021/10/22 10:25:00;;;;;;;0.68;0.20;;;;;;;;;;5063688;28;20059;-79
2021/10/22 10:27:26;;;;;;;0.52;0.20;;;;;;;;;;5062439;28;20076;-79
2021/10/22 10:29:58;;;;;;;0.88;0.20;;;;;;;;;;5065621;28;20077;-79
2021/10/22 10:32:26;;;;;;;0.40;0.20;;;;;;;;;;5065483;28;20133;-79
2021/10/22 10:34:53;;;;;;;1.15;0.50;;;;;;;;;;5056455;28;20044;-79
2021/10/22 10:37:20;;;;;;;0.47;0.15;;;;;;;;;;5058220;28;20430;-79
2021/10/22 10:39:50;;;;;;;1.10;0.30;;;;;;;;;;5065528;28;20077;-79
2021/10/22 10:42:17;;;;;;;0.28;0.20;;;;;;;;;;5063928;28;20205;-79
2021/10/22 10:44:44;;;;;;;1.10;0.20;;;;;;;;;;5055244;28;20064;-79
2021/10/22 10:47:25;;;;;;;1.30;0.40;;;;;;;;;;5063937;28;20074;-79
2021/10/22 10:49:52;;;;;;;;;;;;;;;;;;5069277;28;20029;-79
2021/10/22 10:52:37;;;;;;;1.10;0.20;;;;;;;;;;5054840;28;19956;-79
2021/10/22 10:55:15;;;;;;;1.25;0.20;;;;;;;;;;5061079;28;20068;-80
2021/10/22 10:57:46;;;;;;;1.52;0.32;;;;;;;;;;5064482;28;20162;-79
2021/10/22 11:00:17;;;;;;;0.65;0.20;;;;;;;;;;5055375;28;20488;-79
2021/10/22 11:03:02;;;;;;;0.55;0.20;;;;;;;;;;5068371;28;20842;-79
2021/10/22 11:08:20;;;;;;;0.17;0.10;;;;;;;;;;5072824;28;20025;-79
2021/10/22 11:11:13;;;;;;;1.42;0.40;;;;;;;;;;5059883;28;21766;-79
2021/10/22 11:13:43;;;;;;;0.50;0.22;;;;;;;;;;5050234;28;20060;-79
2021/10/22 11:19:06;;;;;;;0.52;0.20;;;;;;;;;;5051759;28;22167;-79
2021/10/22 11:21:34;;;;;;;1.95;0.68;;;;;;;;;;5061330;28;20110;-80
2021/10/22 11:24:02;;;;;;;0.85;0.25;;;;;;;;;;5064692;28;20060;-79
2021/10/22 11:26:28;;;;;;;0.35;0.10;;;;;;;;;;5057446;28;20056;-80
2021/10/22 11:28:59;;;;;;;0.40;0.20;;;;;;;;;;5065093;28;20071;-80
2021/10/22 11:31:36;;;;;;;1.67;0.30;;;;;;;;;;5061628;28;20617;-79
2021/10/22 11:34:03;;;;;;;0.63;0.20;;;;;;;;;;5054869;28;20102;-79
2021/10/22 11:36:30;;;;;;;0.82;0.43;;;;;;;;;;5060311;28;20106;-79
2021/10/22 11:38:56;;;;;;;0.45;0.15;;;;;;;;;;5067155;28;20193;-79
2021/10/22 11:41:23;;;;;;;0.35;0.20;;;;;;;;;;5064308;28;20059;-79
2021/10/22 11:44:06;;;;;;;1.00;0.20;;;;;;;;;;5061952;28;20101;-80
2021/10/22 11:46:41;;;;;;;1.50;0.32;;;;;;;;;;5061717;28;20121;-79
2021/10/22 11:49:08;;;;;;;0.63;0.28;;;;;;;;;;5064562;28;20145;-80
2021/10/22 11:51:35;;;;;;;0.15;0.10;;;;;;;;;;5061497;28;20121;-80
2021/10/22 11:54:02;;;;;;;0.30;0.22;;;;;;;;;;5062000;28;20068;-80
2021/10/22 11:56:32;;;;;;;0.93;0.25;;;;;;;;;;5058798;28;20075;-80
2021/10/22 11:58:58;;;;;;;0.63;0.30;;;;;;;;;;5062944;28;20102;-80
2021/10/22 12:01:26;;;;;;;0.70;0.20;;;;;;;;;;5061751;28;20060;-80
2021/10/22 12:03:55;;;;;;;0.30;0.20;;;;;;;;;;5059879;28;20445;-80
2021/10/22 12:06:23;;;;;;;0.60;0.22;;;;;;;;;;5058782;28;20065;-80
2021/10/22 12:08:50;;;;;;;0.20;0.10;;;;;;;;;;5066649;28;20064;-80
2021/10/22 12:11:20;;;;;;;1.52;0.30;;;;;;;;;;5060565;28;20110;-79
2021/10/22 12:13:47;;;;;;;0.20;0.10;;;;;;;;;;5065113;28;20064;-80
2021/10/22 12:16:14;;;;;;;1.65;0.30;;;;;;;;;;5065444;28;20085;-80
2021/10/22 12:18:45;;;;;;;0.70;0.30;;;;;;;;;;5060644;28;20049;-80
2021/10/22 12:21:12;;;;;;;2.28;0.40;;;;;;;;;;5061970;28;20487;-79
2021/10/22 12:23:39;;;;;;;1.63;0.30;;;;;;;;;;5062816;28;20059;-79
2021/10/22 12:26:26;;;;;;;0.73;0.30;;;;;;;;;;5064327;28;20108;-79
2021/10/22 12:29:05;;;;;;;0.93;0.30;;;;;;;;;;5050218;28;20141;-80
2021/10/22 12:31:32;;;;;;;1.35;0.20;;;;;;;;;;5066092;28;20060;-78
2021/10/22 12:34:09;;;;;;;0.45;0.22;;;;;;;;;;5066959;28;20071;-79
2021/10/22 12:36:36;;;;;;;1.38;0.55;;;;;;;;;;5056330;28;21350;-79
2021/10/22 12:39:20;;;;;;;1.35;0.20;;;;;;;;;;5056477;28;20463;-79
2021/10/22 12:41:46;;;;;;;0.55;0.20;;;;;;;;;;5056820;28;20091;-79
2021/10/22 12:44:13;;;;;;;0.65;0.25;;;;;;;;;;5072958;28;20081;-79
2021/10/22 12:47:00;;;;;;;0.82;0.28;;;;;;;;;;5063914;28;20566;-80
2021/10/22 12:49:30;;;;;;;0.75;0.20;;;;;;;;;;5063504;28;20117;-80
2021/10/22 12:52:04;;;;;;;1.07;0.30;;;;;;;;;;5063451;28;20060;-81
2021/10/22 12:54:31;;;;;;;0.85;0.20;;;;;;;;;;5057943;28;20486;-80
2021/10/22 12:56:58;;;;;;;0.47;0.20;;;;;;;;;;5065025;28;20064;-80
2021/10/22 12:59:29;;;;;;;0.52;0.32;;;;;;;;;;5065467;28;20064;-81
2021/10/22 13:01:56;;;;;;;1.02;0.30;;;;;;;;;;5064621;28;20056;-80
2021/10/22 13:04:24;;;;;;;1.08;0.30;;;;;;;;;;5067540;28;20067;-79
2021/10/22 13:09:48;;;;;;;1.10;0.40;;;;;;;;;;5062050;28;20098;-81
2021/10/22 13:12:39;;;;;;;1.52;0.30;;;;;;;;;;5069627;28;20114;-81
2021/10/22 13:20:43;;;;;;;1.33;0.40;;;;;;;;;;5064640;28;20125;-80
2021/10/22 13:23:11;;;;;;;1.35;0.50;;;;;;;;;;5059118;28;20052;-80
2021/10/22 13:25:41;;;;;;;1.23;0.40;;;;;;;;;;5057913;28;20568;-79
2021/10/22 13:28:08;;;;;;;0.63;0.20;;;;;;;;;;5061461;28;20064;-79
2021/10/22 13:30:41;;;;;;;0.60;0.20;;;;;;;;;;5063995;28;20056;-80
2021/10/22 13:33:13;;;;;;;1.35;0.30;;;;;;;;;;5071926;28;20524;-79
2021/10/22 13:35:39;;;;;;;1.85;0.40;;;;;;;;;;5059062;28;20061;-80
2021/10/22 13:38:10;;;;;;;2.03;0.30;;;;;;;;;;5063632;28;20118;-80
2021/10/22 13:40:37;;;;;;;0.80;0.32;;;;;;;;;;5061547;28;20090;-79
2021/10/22 13:43:04;;;;;;;1.42;0.40;;;;;;;;;;5067883;28;20060;-79
2021/10/22 13:45:30;;;;;;;0.57;0.20;;;;;;;;;;5057013;28;20118;-79
2021/10/22 13:47:57;;;;;;;0.95;0.35;;;;;;;;;;5063715;28;20496;-78
2021/10/22 13:50:23;;;;;;;1.05;0.35;;;;;;;;;;5066813;28;20127;-78
2021/10/22 13:52:49;;;;;;;0.60;0.30;;;;;;;;;;5059320;28;20071;-79
2021/10/22 13:55:17;;;;;;;0.98;0.32;;;;;;;;;;5066460;28;20530;-79
2021/10/22 13:57:50;;;;;;;0.85;0.30;;;;;;;;;;5062691;28;20423;-79
2021/10/22 14:00:17;;;;;;;2.33;0.40;;;;;;;;;;5064910;28;20086;-79
2021/10/22 14:02:44;;;;;;;1.25;0.50;;;;;;;;;;5068209;28;20040;-79
2021/10/22 14:05:10;;;;;;;0.95;0.30;;;;;;;;;;5067010;28;20064;-79
2021/10/22 14:07:37;;;;;;;1.38;0.38;;;;;;;;;;5063769;28;20064;-79
2021/10/22 14:10:04;;;;;;;2.03;0.40;;;;;;;;;;5068269;28;20060;-79
2021/10/22 14:12:46;;;;;;;0.85;0.30;;;;;;;;;;5057664;28;20029;-79
2021/10/22 14:16:00;;;;;;;0.68;0.32;;;;;;;;;;5063991;28;20746;-79
2021/10/22 14:18:35;;;;;;;0.90;0.60;;;;;;;;;;5056980;28;20396;-79
2021/10/22 14:24:03;;;;;;;1.00;0.40;;;;;;;;;;5074733;28;20055;-79
2021/10/22 14:29:16;;;;;;;1.35;0.45;;;;;;;;;;5065427;28;20566;-80
2021/10/22 14:31:43;;;;;;;0.82;0.30;;;;;;;;;;5066888;28;20036;-79
2021/10/22 14:34:15;;;;;;;1.63;0.50;;;;;;;;;;5072179;28;20044;-78
2021/10/22 14:36:41;;;;;;;0.95;0.30;;;;;;;;;;5050018;28;20109;-79
2021/10/22 14:39:08;;;;;;;1.58;0.38;;;;;;;;;;5066283;28;20029;-79
2021/10/22 14:41:35;;;;;;;1.13;0.47;;;;;;;;;;5073267;28;20032;-79
2021/10/22 14:44:06;;;;;;;1.00;0.52;;;;;;;;;;5072214;28;20090;-78
2021/10/22 14:46:47;;;;;;;0.57;0.40;;;;;;;;;;5074004;28;20029;-79
2021/10/22 14:49:25;;;;;;;1.80;0.50;;;;;;;;;;5069672;28;20222;-79
2021/10/22 14:56:45;;;;;;;1.30;0.40;;;;;;;;;;5055927;28;20045;-79
2021/10/22 14:59:12;;;;;;;1.40;0.47;;;;;;;;;;5073692;28;20842;-79
2021/10/22 15:01:40;;;;;;;1.15;0.38;;;;;;;;;;5060772;28;20090;-79
2021/10/22 15:04:07;;;;;;;2.38;0.65;;;;;;;;;;5067883;28;20064;-80
2021/10/22 15:06:34;;;;;;;0.95;0.40;;;;;;;;;;5063984;28;20029;-79
2021/10/22 15:09:01;;;;;;;1.40;0.55;;;;;;;;;;5064263;28;20063;-83
2021/10/22 15:11:28;;;;;;;0.55;0.20;;;;;;;;;;5064131;28;20032;-80
2021/10/22 15:13:55;;;;;;;1.42;0.60;;;;;;;;;;5070019;28;20068;-78
2021/10/22 15:16:22;;;;;;;2.55;0.73;;;;;;;;;;5064945;28;20049;-78
2021/10/22 15:18:49;;;;;;;1.90;0.50;;;;;;;;;;5067171;28;20058;-78
2021/10/22 15:21:16;;;;;;;2.63;1.05;;;;;;;;;;5069774;28;20416;-78